
Distance (Route):
Temperature : -0.3°C
Humidity : 25.4%
Pressure : 0hPa| Receiver | Frames | First received | Last received |
|---|---|---|---|
| LZ4TU-5 | 110 | 2026-09-04 11:27:11 | 2026-09-04 13:05:40 |
| Receiver | Date | Latitude | Longitude | Direction | Speed | Altitude | Climb | Temperature | Humidity | Pressure | Voltage | Killtimer | Uptime | BKT | XDATA |
|---|---|---|---|---|---|---|---|---|---|---|---|---|---|---|---|
| LZ4TU-5 | 2026-09-04 13:05:40 | 42.67104 | 21.91476 | 170° | 47km/h | 4114m | -15.0m/s | -0.3°C | 25.4% | 0hPa | 0V | 00:00:00 | 00:00:00 | 00:00:00 | |
| LZ4TU-5 | 2026-09-04 13:05:34 | 42.67175 | 21.91451 | 167° | 46km/h | 4191m | -15.8m/s | -0.3°C | 26.1% | 0hPa | 0V | 00:00:00 | 00:00:00 | 00:00:00 | |
| LZ4TU-5 | 2026-09-04 13:05:28 | 42.67239 | 21.91431 | 170° | 42km/h | 4292m | -15.6m/s | -0.6°C | 23.5% | 0hPa | 0V | 00:00:00 | 00:00:00 | 00:00:00 | |
| LZ4TU-5 | 2026-09-04 13:04:15 | 42.68220 | 21.91387 | 185° | 68km/h | 5513m | -16.9m/s | -6.8°C | 44.4% | 0hPa | 0V | 00:00:00 | 00:00:00 | 00:00:00 | |
| LZ4TU-5 | 2026-09-04 13:04:10 | 42.68307 | 21.91395 | 184° | 69km/h | 5586m | -16.9m/s | -7.0°C | 43.3% | 0hPa | 0V | 00:00:00 | 00:00:00 | 00:00:00 | |
| LZ4TU-5 | 2026-09-04 13:02:49 | 42.69793 | 21.91558 | 187° | 77km/h | 6996m | -18.8m/s | -15.6°C | 41.9% | 0hPa | 0V | 00:00:00 | 00:00:00 | 00:00:00 | |
| LZ4TU-5 | 2026-09-04 13:02:46 | 42.69871 | 21.91569 | 187° | 77km/h | 7071m | -18.8m/s | -16.0°C | 41.8% | 0hPa | 0V | 00:00:00 | 00:00:00 | 00:00:00 | |
| LZ4TU-5 | 2026-09-04 13:01:24 | 42.71623 | 21.91896 | 191° | 88km/h | 8615m | -19.9m/s | -28.0°C | 39.7% | 0hPa | 0V | 00:00:00 | 00:00:00 | 00:00:00 | |
| LZ4TU-5 | 2026-09-04 13:01:19 | 42.71734 | 21.91925 | 191° | 88km/h | 8698m | -20.2m/s | -28.6°C | 0% | 0hPa | 0V | 00:00:00 | 00:00:00 | 00:00:00 | |
| LZ4TU-5 | 2026-09-04 12:57:10 | 42.78493 | 21.93368 | 147° | 27km/h | 14291m | -27.1m/s | -55.8°C | 0.0% | 0hPa | 0V | 00:00:00 | 00:00:00 | 00:00:00 | |
| LZ4TU-5 | 2026-09-04 12:57:06 | 42.78522 | 21.93337 | 138° | 31km/h | 14430m | -27.3m/s | -56.5°C | 0.0% | 0hPa | 0V | 00:00:00 | 00:00:00 | 00:00:00 | |
| LZ4TU-5 | 2026-09-04 12:57:00 | 42.78551 | 21.93293 | 128° | 40km/h | 14572m | -27.4m/s | -56.3°C | 0.0% | 0hPa | 0V | 00:00:00 | 00:00:00 | 00:00:00 | |
| LZ4TU-5 | 2026-09-04 12:56:56 | 42.78579 | 21.93249 | 126° | 40km/h | 14689m | -27.6m/s | -56.2°C | 0.0% | 0hPa | 0V | 00:00:00 | 00:00:00 | 00:00:00 | |
| LZ4TU-5 | 2026-09-04 12:54:00 | 42.78932 | 21.92111 | 353° | 11km/h | 20639m | -43.5m/s | -55.8°C | 0.0% | 0hPa | 0V | 00:00:00 | 00:00:00 | 00:00:00 | |
| LZ4TU-5 | 2026-09-04 12:53:56 | 42.78924 | 21.92117 | 300° | 7km/h | 20814m | -44.2m/s | -55.3°C | 0.0% | 0hPa | 0V | 00:00:00 | 00:00:00 | 00:00:00 | |
| LZ4TU-5 | 2026-09-04 12:52:15 | 42.79966 | 21.92931 | 0° | 0km/h | 31960m | 0.0m/s | -46.2°C | 0.0% | 0hPa | 0V | 00:00:00 | 00:00:00 | 00:00:00 | |
| LZ4TU-5 | 2026-09-04 12:52:11 | 42.79819 | 21.92767 | 0° | 0km/h | 31916m | 0.0m/s | -45.8°C | 0% | 0hPa | 0V | 00:00:00 | 00:00:00 | 00:00:00 | |
| LZ4TU-5 | 2026-09-04 12:52:06 | 42.79486 | 21.91658 | 0° | 0km/h | 31850m | 0.0m/s | -46.0°C | 0.0% | 0hPa | 0V | 00:00:00 | 00:00:00 | 00:00:00 | |
| LZ4TU-5 | 2026-09-04 12:51:59 | 42.79184 | 21.91703 | 0° | 0km/h | 31782m | 0.0m/s | -45.0°C | 0.0% | 0hPa | 0V | 00:00:00 | 00:00:00 | 00:00:00 | |
| LZ4TU-5 | 2026-09-04 12:51:54 | 42.79145 | 21.91726 | 326° | 31km/h | 31756m | 8.5m/s | -44.9°C | 0.0% | 0hPa | 0V | 00:00:00 | 00:00:00 | 00:00:00 | |
| LZ4TU-5 | 2026-09-04 12:50:09 | 42.78789 | 21.92679 | 266° | 27km/h | 30992m | 6.6m/s | -41.6°C | 0.9% | 0hPa | 0V | 00:00:00 | 00:00:00 | 00:00:00 | |
| LZ4TU-5 | 2026-09-04 12:50:05 | 42.78791 | 21.92712 | 267° | 16km/h | 30966m | 6.7m/s | -41.6°C | 0.9% | 0hPa | 0V | 00:00:00 | 00:00:00 | 00:00:00 | |
| LZ4TU-5 | 2026-09-04 12:48:09 | 42.78926 | 21.93273 | 262° | 26km/h | 30211m | 6.6m/s | -42.4°C | 0.7% | 0hPa | 0V | 00:00:00 | 00:00:00 | 00:00:00 | |
| LZ4TU-5 | 2026-09-04 12:48:04 | 42.78936 | 21.93314 | 236° | 16km/h | 30176m | 6.6m/s | -42.3°C | 0.7% | 0hPa | 0V | 00:00:00 | 00:00:00 | 00:00:00 | |
| LZ4TU-5 | 2026-09-04 12:46:09 | 42.79166 | 21.93338 | 94° | 9km/h | 29423m | 7.3m/s | -44.0°C | 0.3% | 0hPa | 0V | 00:00:00 | 00:00:00 | 00:00:00 | |
| LZ4TU-5 | 2026-09-04 12:46:04 | 42.79162 | 21.93334 | 310° | 13km/h | 29388m | 7.1m/s | -44.0°C | 0.3% | 0hPa | 0V | 00:00:00 | 00:00:00 | 00:00:00 | |
| LZ4TU-5 | 2026-09-04 12:44:08 | 42.79147 | 21.93394 | 63° | 13km/h | 28615m | 6.8m/s | -45.6°C | 0.1% | 0hPa | 0V | 00:00:00 | 00:00:00 | 00:00:00 | |
| LZ4TU-5 | 2026-09-04 12:44:03 | 42.79145 | 21.93384 | 241° | 13km/h | 28584m | 7.0m/s | -45.4°C | 0.0% | 0hPa | 0V | 00:00:00 | 00:00:00 | 00:00:00 | |
| LZ4TU-5 | 2026-09-04 12:41:27 | 42.78799 | 21.93246 | 315° | 26km/h | 27536m | 5.9m/s | -47.1°C | 0.2% | 0hPa | 0V | 00:00:00 | 00:00:00 | 00:00:00 | |
| LZ4TU-5 | 2026-09-04 12:41:22 | 42.78775 | 21.93279 | 343° | 29km/h | 27506m | 5.7m/s | -46.9°C | 0.1% | 0hPa | 0V | 00:00:00 | 00:00:00 | 00:00:00 | |
| LZ4TU-5 | 2026-09-04 12:39:19 | 42.78443 | 21.93748 | 233° | 18km/h | 26729m | 6.6m/s | -47.3°C | 0.1% | 0hPa | 0V | 00:00:00 | 00:00:00 | 00:00:00 | |
| LZ4TU-5 | 2026-09-04 12:39:14 | 42.78455 | 21.93773 | 255° | 18km/h | 26696m | 6.3m/s | -47.3°C | 0.1% | 0hPa | 0V | 00:00:00 | 00:00:00 | 00:00:00 | |
| LZ4TU-5 | 2026-09-04 12:37:19 | 42.78635 | 21.93762 | 155° | 20km/h | 25988m | 6.2m/s | -47.9°C | 0.1% | 0hPa | 0V | 00:00:00 | 00:00:00 | 00:00:00 | |
| LZ4TU-5 | 2026-09-04 12:37:14 | 42.78656 | 21.93736 | 110° | 18km/h | 25952m | 5.8m/s | -47.8°C | 0.1% | 0hPa | 0V | 00:00:00 | 00:00:00 | 00:00:00 | |
| LZ4TU-5 | 2026-09-04 12:35:20 | 42.78637 | 21.93419 | 74° | 9km/h | 25231m | 5.3m/s | -49.4°C | 0.0% | 0hPa | 0V | 00:00:00 | 00:00:00 | 00:00:00 | |
| LZ4TU-5 | 2026-09-04 12:35:15 | 42.78630 | 21.93394 | 103° | 27km/h | 25202m | 6.0m/s | -49.5°C | 0.0% | 0hPa | 0V | 00:00:00 | 00:00:00 | 00:00:00 | |
| LZ4TU-5 | 2026-09-04 12:33:09 | 42.78251 | 21.93038 | 329° | 26km/h | 24447m | 6.0m/s | -50.7°C | 0.0% | 0hPa | 0V | 00:00:00 | 00:00:00 | 00:00:00 | |
| LZ4TU-5 | 2026-09-04 12:33:05 | 42.78222 | 21.93052 | 355° | 26km/h | 24425m | 6.3m/s | -50.9°C | 0.0% | 0hPa | 0V | 00:00:00 | 00:00:00 | 00:00:00 | |
| LZ4TU-5 | 2026-09-04 12:31:00 | 42.78054 | 21.93273 | 262° | 9km/h | 23666m | 6.9m/s | -54.0°C | 0.0% | 0hPa | 0V | 00:00:00 | 00:00:00 | 00:00:00 | |
| LZ4TU-5 | 2026-09-04 12:30:56 | 42.78056 | 21.93279 | 279° | 5km/h | 23637m | 6.6m/s | -53.9°C | 0.0% | 0hPa | 0V | 00:00:00 | 00:00:00 | 00:00:00 | |
| LZ4TU-5 | 2026-09-04 12:29:00 | 42.77929 | 21.93316 | 0° | 0km/h | 22949m | 5.9m/s | -52.8°C | 0.0% | 0hPa | 0V | 00:00:00 | 00:00:00 | 00:00:00 | |
| LZ4TU-5 | 2026-09-04 12:28:55 | 42.77923 | 21.93309 | 359° | 9km/h | 22919m | 5.9m/s | -53.4°C | 0.0% | 0hPa | 0V | 00:00:00 | 00:00:00 | 00:00:00 | |
| LZ4TU-5 | 2026-09-04 12:26:52 | 42.78036 | 21.93503 | 0° | 0km/h | 22179m | 6.7m/s | -52.5°C | 0.0% | 0hPa | 0V | 00:00:00 | 00:00:00 | 00:00:00 | |
| LZ4TU-5 | 2026-09-04 12:26:47 | 42.78040 | 21.93482 | 57° | 18km/h | 22144m | 6.0m/s | -52.6°C | 0.0% | 0hPa | 0V | 00:00:00 | 00:00:00 | 00:00:00 | |
| LZ4TU-5 | 2026-09-04 12:24:49 | 42.78016 | 21.93565 | 161° | 24km/h | 21461m | 5.2m/s | -54.1°C | 0.0% | 0hPa | 0V | 00:00:00 | 00:00:00 | 00:00:00 | |
| LZ4TU-5 | 2026-09-04 12:24:45 | 42.78025 | 21.93546 | 113° | 16km/h | 21439m | 5.1m/s | -54.0°C | 0.0% | 0hPa | 0V | 00:00:00 | 00:00:00 | 00:00:00 | |
| LZ4TU-5 | 2026-09-04 12:22:39 | 42.77858 | 21.93350 | 9° | 22km/h | 20732m | 5.5m/s | -56.1°C | 0.0% | 0hPa | 0V | 00:00:00 | 00:00:00 | 00:00:00 | |
| LZ4TU-5 | 2026-09-04 12:22:34 | 42.77854 | 21.93344 | 264° | 4km/h | 20705m | 3.9m/s | -56.1°C | 0.0% | 0hPa | 0V | 00:00:00 | 00:00:00 | 00:00:00 | |
| LZ4TU-5 | 2026-09-04 12:20:32 | 42.77733 | 21.93445 | 128° | 18km/h | 19977m | 6.7m/s | -55.9°C | 0.0% | 0hPa | 0V | 00:00:00 | 00:00:00 | 00:00:00 | |
| LZ4TU-5 | 2026-09-04 12:20:27 | 42.77758 | 21.93419 | 173° | 22km/h | 19947m | 6.6m/s | -56.0°C | 0.0% | 0hPa | 0V | 00:00:00 | 00:00:00 | 00:00:00 | |
| LZ4TU-5 | 2026-09-04 12:18:40 | 42.77728 | 21.93003 | 24° | 13km/h | 19344m | 5.6m/s | -56.6°C | 0.0% | 0hPa | 0V | 00:00:00 | 00:00:00 | 00:00:00 | |
| LZ4TU-5 | 2026-09-04 12:18:35 | 42.77719 | 21.92987 | 149° | 11km/h | 19315m | 5.9m/s | -56.5°C | 0.0% | 0hPa | 0V | 00:00:00 | 00:00:00 | 00:00:00 | |
| LZ4TU-5 | 2026-09-04 12:16:41 | 42.77710 | 21.92199 | 63° | 29km/h | 18696m | 5.2m/s | -58.5°C | 0.2% | 0hPa | 0V | 00:00:00 | 00:00:00 | 00:00:00 | |
| LZ4TU-5 | 2026-09-04 12:16:36 | 42.77694 | 21.92160 | 59° | 29km/h | 18668m | 6.1m/s | -58.3°C | 0.2% | 0hPa | 0V | 00:00:00 | 00:00:00 | 00:00:00 | |
| LZ4TU-5 | 2026-09-04 12:14:35 | 42.77442 | 21.91610 | 140° | 9km/h | 17999m | 5.1m/s | -56.7°C | 0.1% | 0hPa | 0V | 00:00:00 | 00:00:00 | 00:00:00 | |
| LZ4TU-5 | 2026-09-04 12:14:30 | 42.77449 | 21.91581 | 96° | 29km/h | 17973m | 6.2m/s | -56.8°C | 0.2% | 0hPa | 0V | 00:00:00 | 00:00:00 | 00:00:00 | |
| LZ4TU-5 | 2026-09-04 12:12:42 | 42.77660 | 21.90992 | 126° | 35km/h | 17393m | 6.0m/s | -57.9°C | 0.1% | 0hPa | 0V | 00:00:00 | 00:00:00 | 00:00:00 | |
| LZ4TU-5 | 2026-09-04 12:12:38 | 42.77675 | 21.90957 | 108° | 26km/h | 17372m | 4.3m/s | -57.9°C | 0.0% | 0hPa | 0V | 00:00:00 | 00:00:00 | 00:00:00 | |
| LZ4TU-5 | 2026-09-04 12:10:33 | 42.78083 | 21.89763 | 100° | 22km/h | 16688m | 5.4m/s | -57.3°C | 1.0% | 0hPa | 0V | 00:00:00 | 00:00:00 | 00:00:00 | |
| LZ4TU-5 | 2026-09-04 12:10:28 | 42.78082 | 21.89733 | 107° | 11km/h | 16660m | 5.8m/s | -57.3°C | 0% | 0hPa | 0V | 00:00:00 | 00:00:00 | 00:00:00 | |
| LZ4TU-5 | 2026-09-04 12:08:32 | 42.78395 | 21.88917 | 134° | 44km/h | 16016m | 5.6m/s | -58.1°C | 1.4% | 0hPa | 0V | 00:00:00 | 00:00:00 | 00:00:00 | |
| LZ4TU-5 | 2026-09-04 12:08:28 | 42.78421 | 21.88853 | 109° | 58km/h | 15993m | 5.6m/s | -58.3°C | 1.5% | 0hPa | 0V | 00:00:00 | 00:00:00 | 00:00:00 | |
| LZ4TU-5 | 2026-09-04 12:06:06 | 42.79545 | 21.87406 | 124° | 46km/h | 15246m | 5.4m/s | -58.8°C | 1.6% | 0hPa | 0V | 00:00:00 | 00:00:00 | 00:00:00 | |
| LZ4TU-5 | 2026-09-04 12:06:02 | 42.79576 | 21.87363 | 146° | 37km/h | 15227m | 4.9m/s | -58.7°C | 1.6% | 0hPa | 0V | 00:00:00 | 00:00:00 | 00:00:00 | |
| LZ4TU-5 | 2026-09-04 12:04:06 | 42.79950 | 21.86453 | 123° | 24km/h | 14673m | 5.0m/s | -55.9°C | 2.8% | 0hPa | 0V | 00:00:00 | 00:00:00 | 00:00:00 | |
| LZ4TU-5 | 2026-09-04 12:04:01 | 42.79973 | 21.86406 | 120° | 37km/h | 14641m | 6.3m/s | -55.7°C | 0% | 0hPa | 0V | 00:00:00 | 00:00:00 | 00:00:00 | |
| LZ4TU-5 | 2026-09-04 12:02:19 | 42.80661 | 21.85509 | 179° | 33km/h | 14156m | 3.9m/s | -55.5°C | 5.9% | 0hPa | 0V | 00:00:00 | 00:00:00 | 00:00:00 | |
| LZ4TU-5 | 2026-09-04 12:02:14 | 42.80688 | 21.85516 | 179° | 24km/h | 14132m | 3.9m/s | -55.3°C | 6.2% | 0hPa | 0V | 00:00:00 | 00:00:00 | 00:00:00 | |
| LZ4TU-5 | 2026-09-04 12:00:31 | 42.81993 | 21.85226 | 165° | 68km/h | 13625m | 4.8m/s | -57.8°C | 17.6% | 0hPa | 0V | 00:00:00 | 00:00:00 | 00:00:00 | |
| LZ4TU-5 | 2026-09-04 12:00:26 | 42.82077 | 21.85198 | 163° | 66km/h | 13601m | 4.1m/s | -58.1°C | 18.6% | 0hPa | 0V | 00:00:00 | 00:00:00 | 00:00:00 | |
| LZ4TU-5 | 2026-09-04 12:00:21 | 42.82155 | 21.85165 | 164° | 64km/h | 13577m | 4.0m/s | -58.2°C | 19.4% | 0hPa | 0V | 00:00:00 | 00:00:00 | 00:00:00 | |
| LZ4TU-5 | 2026-09-04 11:58:37 | 42.84306 | 21.85249 | 177° | 117km/h | 13001m | 3.9m/s | -62.9°C | 40.2% | 0hPa | 0V | 00:00:00 | 00:00:00 | 00:00:00 | |
| LZ4TU-5 | 2026-09-04 11:58:33 | 42.84427 | 21.85243 | 181° | 122km/h | 12981m | 5.4m/s | -62.8°C | 40.0% | 0hPa | 0V | 00:00:00 | 00:00:00 | 00:00:00 | |
| LZ4TU-5 | 2026-09-04 11:56:46 | 42.87663 | 21.85525 | 192° | 141km/h | 12387m | 5.6m/s | -60.1°C | 36.7% | 0hPa | 0V | 00:00:00 | 00:00:00 | 00:00:00 | |
| LZ4TU-5 | 2026-09-04 11:56:42 | 42.87803 | 21.85560 | 193° | 144km/h | 12369m | 3.3m/s | -60.0°C | 37.1% | 0hPa | 0V | 00:00:00 | 00:00:00 | 00:00:00 | |
| LZ4TU-5 | 2026-09-04 11:54:56 | 42.91658 | 21.86584 | 189° | 150km/h | 11878m | 5.0m/s | -56.4°C | 43.8% | 0hPa | 0V | 00:00:00 | 00:00:00 | 00:00:00 | |
| LZ4TU-5 | 2026-09-04 11:54:51 | 42.91835 | 21.86613 | 188° | 133km/h | 11855m | 5.3m/s | -56.2°C | 43.6% | 0hPa | 0V | 00:00:00 | 00:00:00 | 00:00:00 | |
| LZ4TU-5 | 2026-09-04 11:52:59 | 42.95780 | 21.87493 | 188° | 142km/h | 11299m | 3.9m/s | -51.8°C | 44.9% | 0hPa | 0V | 00:00:00 | 00:00:00 | 00:00:00 | |
| LZ4TU-5 | 2026-09-04 11:52:54 | 42.95959 | 21.87522 | 189° | 141km/h | 11275m | 4.4m/s | -51.6°C | 45.2% | 0hPa | 0V | 00:00:00 | 00:00:00 | 00:00:00 | |
| LZ4TU-5 | 2026-09-04 11:51:06 | 42.99522 | 21.88017 | 187° | 128km/h | 10747m | 5.6m/s | -47.4°C | 45.2% | 0hPa | 0V | 00:00:00 | 00:00:00 | 00:00:00 | |
| LZ4TU-5 | 2026-09-04 11:51:01 | 42.99678 | 21.88058 | 192° | 124km/h | 10718m | 4.8m/s | -47.1°C | 45.0% | 0hPa | 0V | 00:00:00 | 00:00:00 | 00:00:00 | |
| LZ4TU-5 | 2026-09-04 11:49:04 | 43.02992 | 21.88708 | 188° | 108km/h | 10144m | 5.0m/s | -42.3°C | 33.6% | 0hPa | 0V | 00:00:00 | 00:00:00 | 00:00:00 | |
| LZ4TU-5 | 2026-09-04 11:49:00 | 43.03103 | 21.88721 | 185° | 113km/h | 10127m | 3.7m/s | -42.2°C | 33.3% | 0hPa | 0V | 00:00:00 | 00:00:00 | 00:00:00 | |
| LZ4TU-5 | 2026-09-04 11:47:17 | 43.05975 | 21.89201 | 180° | 106km/h | 9618m | 3.8m/s | -37.4°C | 28.0% | 0hPa | 0V | 00:00:00 | 00:00:00 | 00:00:00 | |
| LZ4TU-5 | 2026-09-04 11:47:12 | 43.06114 | 21.89218 | 194° | 110km/h | 9593m | 4.7m/s | -37.2°C | 27.7% | 0hPa | 0V | 00:00:00 | 00:00:00 | 00:00:00 | |
| LZ4TU-5 | 2026-09-04 11:45:29 | 43.08825 | 21.89725 | 186° | 89km/h | 9027m | 4.5m/s | -32.3°C | 25.5% | 0hPa | 0V | 00:00:00 | 00:00:00 | 00:00:00 | |
| LZ4TU-5 | 2026-09-04 11:45:25 | 43.08942 | 21.89751 | 190° | 102km/h | 8999m | 6.3m/s | -32.1°C | 26.8% | 0hPa | 0V | 00:00:00 | 00:00:00 | 00:00:00 | |
| LZ4TU-5 | 2026-09-04 11:43:36 | 43.11384 | 21.90295 | 199° | 102km/h | 8385m | 6.5m/s | -27.0°C | 32.9% | 0hPa | 0V | 00:00:00 | 00:00:00 | 00:00:00 | |
| LZ4TU-5 | 2026-09-04 11:43:32 | 43.11480 | 21.90319 | 183° | 97km/h | 8359m | 5.0m/s | -26.9°C | 33.5% | 0hPa | 0V | 00:00:00 | 00:00:00 | 00:00:00 | |
| LZ4TU-5 | 2026-09-04 11:41:57 | 43.13683 | 21.90842 | 180° | 108km/h | 7863m | 3.8m/s | -23.2°C | 38.7% | 0hPa | 0V | 00:00:00 | 00:00:00 | 00:00:00 | |
| LZ4TU-5 | 2026-09-04 11:41:52 | 43.13804 | 21.90856 | 190° | 86km/h | 7834m | 7.3m/s | -23.0°C | 38.2% | 0hPa | 0V | 00:00:00 | 00:00:00 | 00:00:00 | |
| LZ4TU-5 | 2026-09-04 11:39:48 | 43.16658 | 21.91302 | 187° | 80km/h | 7250m | 4.8m/s | -19.2°C | 43.2% | 0hPa | 0V | 00:00:00 | 00:00:00 | 00:00:00 | |
| LZ4TU-5 | 2026-09-04 11:39:44 | 43.16748 | 21.91296 | 177° | 108km/h | 7230m | 4.6m/s | -19.1°C | 43.3% | 0hPa | 0V | 00:00:00 | 00:00:00 | 00:00:00 | |
| LZ4TU-5 | 2026-09-04 11:38:00 | 43.19160 | 21.91268 | 181° | 97km/h | 6829m | 4.0m/s | -16.5°C | 48.1% | 0hPa | 0V | 00:00:00 | 00:00:00 | 00:00:00 | |
| LZ4TU-5 | 2026-09-04 11:37:55 | 43.19281 | 21.91266 | 184° | 77km/h | 6812m | 4.7m/s | -16.5°C | 49.9% | 0hPa | 0V | 00:00:00 | 00:00:00 | 00:00:00 | |
| LZ4TU-5 | 2026-09-04 11:36:06 | 43.21606 | 21.91358 | 188° | 64km/h | 6319m | 4.8m/s | -13.8°C | 47.6% | 0hPa | 0V | 00:00:00 | 00:00:00 | 00:00:00 | |
| LZ4TU-5 | 2026-09-04 11:36:01 | 43.21708 | 21.91348 | 184° | 99km/h | 6290m | 5.0m/s | -13.6°C | 48.7% | 0hPa | 0V | 00:00:00 | 00:00:00 | 00:00:00 | |
| LZ4TU-5 | 2026-09-04 11:34:46 | 43.23094 | 21.91498 | 190° | 58km/h | 5876m | 6.6m/s | -11.7°C | 55.8% | 0hPa | 0V | 00:00:00 | 00:00:00 | 00:00:00 | |
| LZ4TU-5 | 2026-09-04 11:34:41 | 43.23196 | 21.91499 | 181° | 93km/h | 5848m | 4.1m/s | -11.5°C | 56.6% | 0hPa | 0V | 00:00:00 | 00:00:00 | 00:00:00 | |
| LZ4TU-5 | 2026-09-04 11:33:25 | 43.24450 | 21.91739 | 189° | 62km/h | 5392m | 7.7m/s | -8.8°C | 40.2% | 0hPa | 0V | 00:00:00 | 00:00:00 | 00:00:00 | |
| LZ4TU-5 | 2026-09-04 11:33:21 | 43.24515 | 21.91749 | 183° | 53km/h | 5368m | 5.0m/s | -8.6°C | 38.6% | 0hPa | 0V | 00:00:00 | 00:00:00 | 00:00:00 | |
| LZ4TU-5 | 2026-09-04 11:32:08 | 43.25375 | 21.91677 | 153° | 38km/h | 4978m | 3.3m/s | -6.7°C | 23.2% | 0hPa | 0V | 00:00:00 | 00:00:00 | 00:00:00 | |
| LZ4TU-5 | 2026-09-04 11:31:02 | 43.25969 | 21.91790 | 179° | 18km/h | 4667m | 3.2m/s | -4.2°C | 16.9% | 0hPa | 0V | 00:00:00 | 00:00:00 | 00:00:00 | |
| LZ4TU-5 | 2026-09-04 11:30:57 | 43.26015 | 21.91788 | 164° | 47km/h | 4644m | 4.9m/s | -4.2°C | 20.5% | 0hPa | 0V | 00:00:00 | 00:00:00 | 00:00:00 | |
| LZ4TU-5 | 2026-09-04 11:29:44 | 43.26627 | 21.91718 | 182° | 49km/h | 4296m | 6.1m/s | -3.2°C | 26.2% | 0hPa | 0V | 00:00:00 | 00:00:00 | 00:00:00 | |
| LZ4TU-5 | 2026-09-04 11:28:36 | 43.27246 | 21.91456 | 145° | 22km/h | 3947m | 6.8m/s | -2.2°C | 47.2% | 0hPa | 0V | 00:00:00 | 00:00:00 | 00:00:00 | |
| LZ4TU-5 | 2026-09-04 11:28:31 | 43.27279 | 21.91447 | 154° | 37km/h | 3916m | 5.5m/s | -2.4°C | 0% | 0hPa | 0V | 00:00:00 | 00:00:00 | 00:00:00 | |
| LZ4TU-5 | 2026-09-04 11:27:21 | 43.27704 | 21.91273 | 146° | 24km/h | 3502m | 5.7m/s | 0.5°C | 51.4% | 0hPa | 0V | 00:00:00 | 00:00:00 | 00:00:00 | |
| LZ4TU-5 | 2026-09-04 11:27:17 | 43.27740 | 21.91278 | 197° | 47km/h | 3479m | 5.1m/s | 0.7°C | 51.1% | 0hPa | 0V | 00:00:00 | 00:00:00 | 00:00:00 | |
| LZ4TU-5 | 2026-09-04 11:27:11 | 43.27792 | 21.91271 | 168° | 11km/h | 3450m | 5.6m/s | 1.0°C | 50.3% | 0hPa | 0V | 00:00:00 | 00:00:00 | 00:00:00 |